Flight Track Log - Related Links

Times and Time Zones

All times are in EDT time to prevent confusion due to time zone crossing. See the SWA2624 flight status page for this flight to view local times or setup timezone preferences in your user account.

Time Position Orientation Groundspeed Altitude Reporting Facility
EDT Latitude Longitude Course Direction KTS MPH feet Rate Location/Type
Fri 09:19:15 AM 47.4614 -122.3089 North 152 175 1,200  Level Seattle Center
Fri 09:19:49 AM 47.4900 -122.3069 North 159 183 2,500 2,526 Climbing Seattle Center
Fri 09:20:50 AM 47.5461 -122.3106 358° North 206 237 5,200 2,430 Climbing Seattle Center
Fri 09:21:50 AM 47.6039 -122.2825 18° North 249 287 7,400 2,628 Climbing Seattle Center
Fri 09:22:51 AM 47.5800 -122.1811 109° East 297 342 10,500 2,926 Climbing Seattle Center
Fri 09:23:51 AM 47.4869 -122.1625 172° South 340 391 13,300 3,074 Climbing Seattle Center
Fri 09:24:52 AM 47.3886 -122.1411 172° South 353 406 16,700 2,902 Climbing Seattle Center
Fri 09:25:53 AM 47.2928 -122.1225 172° South 367 422 19,200 2,529 Climbing Seattle Center
Fri 09:26:53 AM 47.1864 -122.1014 172° South 380 437 21,800 2,380 Climbing Seattle Center
Fri 09:27:54 AM 47.0764 -122.0789 172° South 396 456 24,000 2,479 Climbing Seattle Center
Fri 09:28:54 AM 46.9758 -121.9917 149° Southeast 425 489 26,800 2,281 Climbing Seattle Center
Fri 09:29:55 AM 46.8789 -121.8917 145° Southeast 432 497 28,600 1,721 Climbing Seattle Center
Fri 09:30:56 AM 46.7767 -121.7881 145° Southeast 447 514 30,300 1,934 Climbing Seattle Center
Fri 09:31:56 AM 46.6528 -121.6603 145° Southeast 459 528 32,500 1,835 Climbing Seattle Center
Fri 09:32:57 AM 46.5653 -121.5703 145° Southeast 459 528 34,000 1,574 Climbing Seattle Center
Fri 09:33:58 AM 46.4606 -121.4656 145° Southeast 459 528 35,700 1,686 Climbing Seattle Center
Fri 09:34:58 AM 46.3581 -121.3617 145° Southeast 452 520 37,400 1,537 Climbing Seattle Center
Fri 09:35:59 AM 46.2564 -121.2606 145° Southeast 447 514 38,800 793 Climbing Seattle Center
Fri 09:36:59 AM 46.1347 -121.1406 146° Southeast 442 509 39,000 99 Climbing Seattle Center
Fri 09:38:00 AM 46.0319 -121.0386 145° Southeast 447 514 39,000  Level Seattle Center
Fri 09:39:01 AM 45.9292 -120.9353 145° Southeast 450 518 39,000  Level Seattle Center
Fri 09:40:01 AM 45.8256 -120.8344 146° Southeast 451 519 39,000  Level Seattle Center
Fri 09:41:02 AM 45.7217 -120.7336 146° Southeast 452 520 39,000  Level Seattle Center
Fri 09:42:03 AM 45.6161 -120.6308 146° Southeast 457 526 39,000  Level Seattle Center
Fri 09:43:04 AM 45.5125 -120.5294 146° Southeast 454 522 39,000  Level Seattle Center
Fri 09:44:04 AM 45.4081 -120.4289 146° Southeast 455 524 39,000  Level Seattle Center
Fri 09:45:05 AM 45.3031 -120.3303 147° Southeast 455 524 39,000  Level Seattle Center
Fri 09:46:06 AM 45.1994 -120.2306 146° Southeast 452 520 39,000  Level Seattle Center
Fri 09:47:06 AM 45.0981 -120.1336 146° Southeast 444 511 39,000  Level Seattle Center
Fri 09:48:07 AM 44.9886 -120.0297 146° Southeast 449 517 39,000  Level Seattle Center
Fri 09:49:08 AM 44.8836 -119.9306 146° Southeast 452 520 39,000  Level Seattle Center
Fri 09:50:09 AM 44.7733 -119.8292 147° Southeast 450 518 39,000  Level Seattle Center
Fri 09:51:10 AM 44.6711 -119.7331 146° Southeast 446 513 39,000  Level Seattle Center
Fri 09:52:10 AM 44.5603 -119.6553 153° Southeast 446 513 39,000  Level Seattle Center
Fri 09:53:11 AM 44.4475 -119.5847 156° South 446 513 39,000  Level Seattle Center
Fri 09:54:12 AM 44.3342 -119.5144 156° South 445 512 39,000  Level Seattle Center
Fri 09:55:13 AM 44.2211 -119.4439 156° South 446 513 39,000  Level Seattle Center
Fri 09:56:13 AM 44.1061 -119.3750 157° South 449 517 39,000  Level Seattle Center
Fri 09:57:14 AM 43.9933 -119.3053 156° South 447 514 39,000  Level Seattle Center
Fri 09:58:15 AM 43.8808 -119.2344 156° South 446 513 39,000  Level Seattle Center
Fri 09:59:16 AM 43.7675 -119.1681 157° South 443 510 39,000  Level Seattle Center
Fri 10:00:16 AM 43.6572 -119.0931 154° Southeast 442 509 39,000  Level Seattle Center
Fri 10:01:17 AM 43.5375 -118.9594 141° Southeast 453 521 39,000  Level Seattle Center
Fri 10:02:18 AM 43.4428 -118.8583 142° Southeast 450 518 39,000  Level Seattle Center
Fri 10:03:19 AM 43.3486 -118.7558 142° Southeast 451 519 39,000  Level Seattle Center
Fri 10:04:19 AM 43.2392 -118.6383 142° Southeast 448 516 39,000  Level Seattle Center
Fri 10:05:20 AM 43.1444 -118.5375 142° Southeast 450 518 39,000  Level Seattle Center
Fri 10:06:21 AM 43.0506 -118.4375 142° Southeast 449 517 39,000  Level Seattle Center
Fri 10:07:22 AM 42.9397 -118.3183 142° Southeast 452 520 39,000  Level Seattle Center
Fri 10:08:40 AM 42.8108 -118.1797 142° Southeast 463 533 39,000  Level Salt Lake Center
Fri 10:09:42 AM 42.7139 -118.0786 143° Southeast 460 529 39,000  Level Salt Lake Center
Fri 10:10:44 AM 42.6014 -117.9614 142° Southeast 457 526 39,000  Level Salt Lake Center
Fri 10:11:45 AM 42.5042 -117.8600 142° Southeast 459 528 39,000  Level Salt Lake Center
Fri 10:12:47 AM 42.3917 -117.7425 142° Southeast 459 528 39,000  Level Salt Lake Center
Fri 10:13:49 AM 42.2942 -117.6431 143° Southeast 459 528 39,000  Level Salt Lake Center
Fri 10:14:51 AM 42.1867 -117.5342 143° Southeast 452 520 39,000  Level Salt Lake Center
Fri 10:15:52 AM 42.0886 -117.4333 143° Southeast 460 529 39,000  Level Salt Lake Center
Fri 10:16:54 AM 41.9753 -117.3161 142° Southeast 459 528 39,000  Level Salt Lake Center
Fri 10:17:56 AM 41.8789 -117.2194 143° Southeast 454 522 39,000  Level Salt Lake Center
Fri 10:18:57 AM 41.7817 -117.1194 142° Southeast 457 526 39,000  Level Salt Lake Center
Fri 10:19:59 AM 41.6700 -117.0089 144° Southeast 447 514 39,000  Level Salt Lake Center
Fri 10:21:01 AM 41.5739 -116.9117 143° Southeast 450 518 39,000  Level Salt Lake Center
Fri 10:22:03 AM 41.4597 -116.7964 143° Southeast 457 526 39,000  Level Salt Lake Center
Fri 10:23:04 AM 41.3631 -116.6989 143° Southeast 456 525 39,000  Level Salt Lake Center
Fri 10:24:06 AM 41.2647 -116.6019 143° Southeast 457 526 39,000  Level Salt Lake Center
Fri 10:25:08 AM 41.1506 -116.4889 143° Southeast 456 525 39,000  Level Salt Lake Center
Fri 10:26:10 AM 41.0522 -116.3928 144° Southeast 457 526 39,000  Level Salt Lake Center
Fri 10:27:11 AM 40.9361 -116.2786 143° Southeast 461 531 39,000  Level Salt Lake Center
Fri 10:28:13 AM 40.8372 -116.1808 143° Southeast 462 532 39,000  Level Salt Lake Center
Fri 10:29:15 AM 40.7225 -116.0683 143° Southeast 458 527 39,000  Level Salt Lake Center
Fri 10:30:17 AM 40.6217 -115.9728 144° Southeast 462 532 39,000  Level Salt Lake Center
Fri 10:31:19 AM 40.5225 -115.8775 144° Southeast 458 527 39,000  Level Salt Lake Center
Fri 10:32:21 AM 40.4108 -115.7672 143° Southeast 450 518 39,000  Level Salt Lake Center
Fri 10:33:23 AM 40.3131 -115.6733 144° Southeast 450 518 39,000  Level Salt Lake Center
Fri 10:34:25 AM 40.1981 -115.5636 144° Southeast 455 524 39,000  Level Salt Lake Center
Fri 10:35:27 AM 40.1003 -115.4714 144° Southeast 453 521 39,000  Level Salt Lake Center
Fri 10:36:28 AM 39.9867 -115.3639 144° Southeast 450 518 39,000  Level Salt Lake Center
Fri 10:37:30 AM 39.8872 -115.2706 144° Southeast 456 525 39,000  Level Salt Lake Center
Fri 10:38:32 AM 39.7883 -115.1769 144° Southeast 457 526 39,000  Level Salt Lake Center
Fri 10:39:34 AM 39.6725 -115.0692 144° Southeast 458 527 39,000  Level Salt Lake Center
Fri 10:40:36 AM 39.5728 -114.9775 145° Southeast 458 527 39,000  Level Salt Lake Center
Fri 10:41:38 AM 39.4564 -114.8686 144° Southeast 460 529 39,000  Level Salt Lake Center
Fri 10:42:40 AM 39.3542 -114.7792 146° Southeast 462 532 39,000  Level Salt Lake Center
Fri 10:43:42 AM 39.2369 -114.6725 145° Southeast 460 529 39,000  Level Salt Lake Center
Fri 10:44:44 AM 39.1453 -114.5844 143° Southeast 459 528 39,000  Level Salt Lake Center
Fri 10:45:46 AM 39.0425 -114.4881 144° Southeast 458 527 39,000  Level Salt Lake Center
Fri 10:46:48 AM 38.9169 -114.3756 145° Southeast 458 527 39,000  Level Salt Lake Center
Fri 10:47:50 AM 38.8139 -114.2811 144° Southeast 457 526 39,000  Level Salt Lake Center
Fri 10:48:52 AM 38.7094 -114.1872 145° Southeast 459 528 39,000  Level Salt Lake Center
Fri 10:49:54 AM 38.6053 -114.0950 145° Southeast 456 525 39,000  Level Salt Lake Center
Fri 10:50:56 AM 38.5019 -114.0014 145° Southeast 455 524 39,000  Level Salt Lake Center
Fri 10:51:58 AM 38.3969 -113.9092 145° Southeast 458 527 39,000  Level Salt Lake Center
Fri 10:53:00 AM 38.2733 -113.7992 145° Southeast 452 520 39,000  Level Salt Lake Center
Fri 10:54:02 AM 38.1697 -113.7069 145° Southeast 454 522 39,000  Level Salt Lake Center
Fri 10:55:04 AM 38.0661 -113.6172 146° Southeast 453 521 39,000 -97 Level Salt Lake Center
Fri 10:56:06 AM 37.9767 -113.5047 135° Southeast 460 529 38,800 -532 Descending Salt Lake Center
Fri 10:57:08 AM 37.9131 -113.3603 119° Southeast 469 540 37,900 -871 Descending Salt Lake Center
Fri 10:58:10 AM 37.8489 -113.2181 120° Southeast 467 537 37,000 -919 Descending Salt Lake Center
Fri 10:59:12 AM 37.7883 -113.0350 113° Southeast 471 542 36,000 -484 Descending Salt Lake Center
Fri 11:00:14 AM 37.7417 -112.8814 111° Southeast 465 535 36,000  Level Salt Lake Center
Fri 11:01:16 AM 37.6419 -112.7778 141° Southeast 452 520 36,000  Level Salt Lake Center
Fri 11:02:18 AM 37.5222 -112.7128 157° South 452 520 36,000  Level Salt Lake Center
Fri 11:03:20 AM 37.4006 -112.6875 171° South 440 506 36,000  Level Salt Lake Center
Fri 11:04:07 AM 37.3053 -112.6675 171° South 435 501 36,000  Level Los Angeles Center
Fri 11:05:09 AM 37.1844 -112.6406 170° South 438 504 36,000  Level Los Angeles Center
Fri 11:06:11 AM 37.0647 -112.6136 170° South 437 503 36,000  Level Los Angeles Center
Fri 11:07:13 AM 36.9467 -112.5869 170° South 431 496 36,000  Level Los Angeles Center
Fri 11:08:16 AM 36.8267 -112.5611 170° South 435 501 36,000  Level Los Angeles Center
Fri 11:09:18 AM 36.7069 -112.5353 170° South 436 502 36,000 -629 Level Los Angeles Center
Fri 11:10:20 AM 36.5642 -112.5033 170° South 435 501 34,700 -1,463 Descending Los Angeles Center
Fri 11:11:21 AM 36.4689 -112.4828 170° South 435 501 33,000 -823 Descending Los Angeles Center
Fri 11:12:24 AM 36.3250 -112.4506 170° South 436 502 33,000 -144 Level Los Angeles Center
Fri 11:13:26 AM 36.1956 -112.4239 171° South 464 534 32,700 -677 Descending Los Angeles Center
Fri 11:14:28 AM 36.0706 -112.4000 171° South 457 526 31,600 -1,016 Descending Los Angeles Center
Fri 11:15:30 AM 35.9289 -112.4075 182° South 452 520 30,600 -1,065 Descending Los Angeles Center
Fri 11:16:32 AM 35.8067 -112.4131 182° South 442 509 29,400 -774 Descending Los Angeles Center
Fri 11:17:34 AM 35.6867 -112.4192 182° South 435 501 29,000 -192 Descending Los Angeles Center
Fri 11:18:37 AM 35.5658 -112.4242 182° South 433 498 29,000  Level Los Angeles Center
Fri 11:19:39 AM 35.4461 -112.4358 185° South 429 494 29,000  Level Los Angeles Center
Fri 11:20:11 AM 35.3733 -112.4331 178° South 429 494 29,000  Level Albuquerque Center
Fri 11:21:13 AM 35.2539 -112.4058 169° South 433 498 29,000  Level Albuquerque Center
Fri 11:22:15 AM 35.1458 -112.4478 198° South 435 501 29,000 -532 Level Albuquerque Center
Fri 11:23:17 AM 35.0519 -112.5419 219° Southwest 437 503 27,900 -2,081 Descending Albuquerque Center
Fri 11:24:19 AM 34.9392 -112.6500 218° Southwest 431 496 24,700 -2,468 Descending Albuquerque Center
Fri 11:25:21 AM 34.8492 -112.7367 218° Southwest 421 484 22,800 -1,500 Descending Albuquerque Center
Fri 11:26:23 AM 34.7658 -112.8172 218° Southwest 397 457 21,600 -1,065 Descending Albuquerque Center
Fri 11:27:25 AM 34.6842 -112.8919 217° Southwest 376 433 20,600 -774 Descending Albuquerque Center
Fri 11:28:27 AM 34.6006 -112.9583 213° Southwest 366 421 20,000 -290 Descending Albuquerque Center
Fri 11:29:29 AM 34.5128 -113.0192 210° Southwest 367 422 20,000  Level Albuquerque Center
Fri 11:30:31 AM 34.4086 -113.0811 206° Southwest 360 414 20,000  Level Albuquerque Center
Fri 11:31:33 AM 34.3153 -113.1283 203° Southwest 367 422 20,000  Level Albuquerque Center
Fri 11:32:36 AM 34.2156 -113.1475 189° South 364 419 20,000  Level Albuquerque Center
Fri 11:33:38 AM 34.1161 -113.1639 188° South 364 419 20,000  Level Albuquerque Center
Fri 11:34:40 AM 33.9939 -113.1633 180° South 365 420 20,000  Level Albuquerque Center
Fri 11:35:42 AM 33.8928 -113.1861 191° South 369 425 20,000  Level Albuquerque Center
Fri 11:36:44 AM 33.7942 -113.2189 195° South 371 427 20,000  Level Albuquerque Center
Fri 11:37:46 AM 33.6933 -113.2392 189° South 369 425 20,000 -581 Level Albuquerque Center
Fri 11:38:48 AM 33.5958 -113.2583 189° South 369 425 18,800 -1,210 Descending Albuquerque Center
Fri 11:39:50 AM 33.4908 -113.1822 149° Southeast 363 418 17,500 -1,065 Descending Albuquerque Center
Fri 11:40:52 AM 33.3992 -113.1356 157° South 360 414 16,600 -919 Descending Albuquerque Center
Fri 11:41:54 AM 33.3083 -113.0869 156° South 358 412 15,600 -1,289 Descending Albuquerque Center
Fri 11:43:21 AM 33.2781 -112.9472 104° East 325 374 13,400 -1,530 Descending Albuquerque Center
Fri 11:44:23 AM 33.2797 -112.8422 89° East 318 366 11,800 -1,306 Descending Albuquerque Center
Fri 11:45:25 AM 33.3050 -112.7533 71° East 282 325 10,700 -1,065 Descending Albuquerque Center
Fri 11:46:27 AM 33.3431 -112.6536 65° Northeast 273 314 9,600 -1,016 Descending Albuquerque Center
Fri 11:47:29 AM 33.3744 -112.5708 66° East 272 313 8,600 -774 Descending Albuquerque Center
Fri 11:48:31 AM 33.4036 -112.4956 65° Northeast 251 289 8,000 -774 Descending Albuquerque Center
Fri 11:49:33 AM 33.4292 -112.4194 68° East 249 287 7,000 -919 Descending Albuquerque Center
Fri 11:50:35 AM 33.4281 -112.3386 91° East 243 280 6,100 -1,016 Descending Albuquerque Center
Fri 11:51:37 AM 33.4289 -112.2600 89° East 239 275 4,900 -1,258 Descending Albuquerque Center
Fri 11:52:39 AM 33.4286 -112.1731 90° East 219 252 3,500 -1,161 Descending Albuquerque Center
Fri 11:53:41 AM 33.4286 -112.1183 90° East 171 197 2,500 -884 Descending Albuquerque Center
Fri 11:54:14 AM 33.4333 -112.0833 81° East 146 168 2,100 -677 Descending Phoenix TRACON
Fri 11:55:45 AM 33.4294 -112.0250 95° East 137 158 1,100 -659 Descending Albuquerque Center
Fri 11:57:00 AM 33.4343 -112.0116 90° East  Level Estimated

Login

Don't have an account? Register now (free) for customized features, flight alerts, and more!